sensor_id;sensor_type;location;lat;lon;timestamp;P1;durP1;ratioP1;P2;durP2;ratioP2
16478;SDS011;8350;52.316;10.530;2022-12-10T00:01:34;26.25;;;14.15;;
16478;SDS011;8350;52.316;10.530;2022-12-10T00:04:04;24.63;;;14.65;;
16478;SDS011;8350;52.316;10.530;2022-12-10T00:06:40;28.65;;;14.80;;
16478;SDS011;8350;52.316;10.530;2022-12-10T00:09:09;29.02;;;14.50;;
16478;SDS011;8350;52.316;10.530;2022-12-10T00:11:37;23.77;;;13.43;;
16478;SDS011;8350;52.316;10.530;2022-12-10T00:14:04;30.55;;;14.60;;
16478;SDS011;8350;52.316;10.530;2022-12-10T00:16:33;33.30;;;15.00;;
16478;SDS011;8350;52.316;10.530;2022-12-10T00:19:01;31.88;;;14.73;;
16478;SDS011;8350;52.316;10.530;2022-12-10T00:21:30;32.50;;;14.57;;
16478;SDS011;8350;52.316;10.530;2022-12-10T00:23:58;32.65;;;17.00;;
16478;SDS011;8350;52.316;10.530;2022-12-10T00:26:26;36.17;;;16.27;;
16478;SDS011;8350;52.316;10.530;2022-12-10T00:28:54;31.92;;;15.07;;
16478;SDS011;8350;52.316;10.530;2022-12-10T00:31:22;34.33;;;15.93;;
16478;SDS011;8350;52.316;10.530;2022-12-10T00:33:58;34.28;;;16.65;;
16478;SDS011;8350;52.316;10.530;2022-12-10T00:36:27;33.45;;;15.68;;
16478;SDS011;8350;52.316;10.530;2022-12-10T00:38:55;31.42;;;15.57;;
16478;SDS011;8350;52.316;10.530;2022-12-10T00:41:23;33.72;;;15.63;;
16478;SDS011;8350;52.316;10.530;2022-12-10T00:43:50;35.20;;;16.65;;
16478;SDS011;8350;52.316;10.530;2022-12-10T00:46:19;31.77;;;16.27;;
16478;SDS011;8350;52.316;10.530;2022-12-10T00:48:46;31.92;;;16.42;;
16478;SDS011;8350;52.316;10.530;2022-12-10T00:51:15;35.53;;;16.27;;
16478;SDS011;8350;52.316;10.530;2022-12-10T00:53:46;33.05;;;14.98;;
16478;SDS011;8350;52.316;10.530;2022-12-10T00:56:15;38.05;;;17.17;;
16478;SDS011;8350;52.316;10.530;2022-12-10T00:58:47;32.97;;;17.00;;
16478;SDS011;8350;52.316;10.530;2022-12-10T01:01:15;37.47;;;17.88;;
16478;SDS011;8350;52.316;10.530;2022-12-10T01:03:44;36.17;;;18.75;;
16478;SDS011;8350;52.316;10.530;2022-12-10T01:06:13;41.28;;;19.08;;
16478;SDS011;8350;52.316;10.530;2022-12-10T01:08:44;36.35;;;16.58;;
16478;SDS011;8350;52.316;10.530;2022-12-10T01:11:13;40.15;;;18.95;;
16478;SDS011;8350;52.316;10.530;2022-12-10T01:13:41;37.03;;;16.95;;
16478;SDS011;8350;52.316;10.530;2022-12-10T01:16:10;46.95;;;19.20;;
16478;SDS011;8350;52.316;10.530;2022-12-10T01:18:38;41.92;;;17.98;;
16478;SDS011;8350;52.316;10.530;2022-12-10T01:21:06;40.53;;;17.80;;
16478;SDS011;8350;52.316;10.530;2022-12-10T01:23:38;39.28;;;18.25;;
16478;SDS011;8350;52.316;10.530;2022-12-10T01:26:07;41.22;;;17.27;;
16478;SDS011;8350;52.316;10.530;2022-12-10T01:28:36;42.60;;;20.77;;
16478;SDS011;8350;52.316;10.530;2022-12-10T01:31:06;40.17;;;18.08;;
16478;SDS011;8350;52.316;10.530;2022-12-10T01:33:35;40.30;;;17.92;;
16478;SDS011;8350;52.316;10.530;2022-12-10T01:36:03;38.72;;;17.90;;
16478;SDS011;8350;52.316;10.530;2022-12-10T01:38:31;37.05;;;16.52;;
16478;SDS011;8350;52.316;10.530;2022-12-10T01:41:00;41.00;;;16.08;;
16478;SDS011;8350;52.316;10.530;2022-12-10T01:43:27;38.78;;;18.55;;
16478;SDS011;8350;52.316;10.530;2022-12-10T01:46:14;37.55;;;16.67;;
16478;SDS011;8350;52.316;10.530;2022-12-10T01:48:41;37.75;;;17.38;;
16478;SDS011;8350;52.316;10.530;2022-12-10T01:51:08;40.90;;;16.48;;
16478;SDS011;8350;52.316;10.530;2022-12-10T01:53:35;34.10;;;15.95;;
16478;SDS011;8350;52.316;10.530;2022-12-10T01:56:04;39.55;;;16.30;;
16478;SDS011;8350;52.316;10.530;2022-12-10T01:58:31;32.33;;;15.50;;
16478;SDS011;8350;52.316;10.530;2022-12-10T02:01:05;35.22;;;14.60;;
16478;SDS011;8350;52.316;10.530;2022-12-10T02:03:36;28.10;;;15.20;;
16478;SDS011;8350;52.316;10.530;2022-12-10T02:06:13;28.48;;;14.30;;
16478;SDS011;8350;52.316;10.530;2022-12-10T02:08:46;31.95;;;15.40;;
16478;SDS011;8350;52.316;10.530;2022-12-10T02:11:24;32.00;;;15.27;;
16478;SDS011;8350;52.316;10.530;2022-12-10T02:14:00;36.80;;;16.02;;
16478;SDS011;8350;52.316;10.530;2022-12-10T02:16:33;30.48;;;14.63;;
16478;SDS011;8350;52.316;10.530;2022-12-10T02:19:03;24.90;;;13.85;;
16478;SDS011;8350;52.316;10.530;2022-12-10T02:21:38;28.77;;;14.52;;
16478;SDS011;8350;52.316;10.530;2022-12-10T02:24:09;31.83;;;15.63;;
16478;SDS011;8350;52.316;10.530;2022-12-10T02:26:42;28.08;;;13.35;;
16478;SDS011;8350;52.316;10.530;2022-12-10T02:29:14;27.30;;;14.65;;
16478;SDS011;8350;52.316;10.530;2022-12-10T02:31:44;28.05;;;14.57;;
16478;SDS011;8350;52.316;10.530;2022-12-10T02:34:14;28.20;;;14.48;;
16478;SDS011;8350;52.316;10.530;2022-12-10T02:36:44;25.83;;;12.38;;
16478;SDS011;8350;52.316;10.530;2022-12-10T02:39:17;30.30;;;13.15;;
16478;SDS011;8350;52.316;10.530;2022-12-10T02:41:51;28.35;;;14.15;;
16478;SDS011;8350;52.316;10.530;2022-12-10T02:44:21;22.98;;;12.35;;
16478;SDS011;8350;52.316;10.530;2022-12-10T02:46:52;26.23;;;13.38;;
16478;SDS011;8350;52.316;10.530;2022-12-10T02:49:22;32.00;;;14.13;;
16478;SDS011;8350;52.316;10.530;2022-12-10T02:51:51;29.65;;;14.60;;
16478;SDS011;8350;52.316;10.530;2022-12-10T02:54:33;32.63;;;14.75;;
16478;SDS011;8350;52.316;10.530;2022-12-10T02:57:04;27.33;;;12.73;;
16478;SDS011;8350;52.316;10.530;2022-12-10T02:59:40;27.38;;;13.02;;
16478;SDS011;8350;52.316;10.530;2022-12-10T03:02:22;30.00;;;13.55;;
16478;SDS011;8350;52.316;10.530;2022-12-10T03:04:56;29.55;;;14.02;;
16478;SDS011;8350;52.316;10.530;2022-12-10T03:07:31;25.92;;;13.73;;
16478;SDS011;8350;52.316;10.530;2022-12-10T03:10:03;26.48;;;14.18;;
16478;SDS011;8350;52.316;10.530;2022-12-10T03:12:35;32.38;;;14.98;;
16478;SDS011;8350;52.316;10.530;2022-12-10T03:15:09;32.00;;;15.38;;
16478;SDS011;8350;52.316;10.530;2022-12-10T03:17:39;30.30;;;16.10;;
16478;SDS011;8350;52.316;10.530;2022-12-10T03:20:10;25.92;;;13.13;;
16478;SDS011;8350;52.316;10.530;2022-12-10T03:22:40;27.27;;;15.15;;
16478;SDS011;8350;52.316;10.530;2022-12-10T03:25:12;24.20;;;13.25;;
16478;SDS011;8350;52.316;10.530;2022-12-10T03:27:49;28.33;;;14.90;;
16478;SDS011;8350;52.316;10.530;2022-12-10T03:30:21;32.42;;;15.50;;
16478;SDS011;8350;52.316;10.530;2022-12-10T03:32:49;29.45;;;15.65;;
16478;SDS011;8350;52.316;10.530;2022-12-10T03:35:16;26.65;;;15.07;;
16478;SDS011;8350;52.316;10.530;2022-12-10T03:37:46;31.52;;;15.70;;
16478;SDS011;8350;52.316;10.530;2022-12-10T03:40:14;31.98;;;16.95;;
16478;SDS011;8350;52.316;10.530;2022-12-10T03:42:43;36.55;;;17.73;;
16478;SDS011;8350;52.316;10.530;2022-12-10T03:45:10;33.05;;;15.65;;
16478;SDS011;8350;52.316;10.530;2022-12-10T03:47:40;37.08;;;18.60;;
16478;SDS011;8350;52.316;10.530;2022-12-10T03:50:07;42.67;;;17.85;;
16478;SDS011;8350;52.316;10.530;2022-12-10T03:52:35;37.58;;;17.58;;
16478;SDS011;8350;52.316;10.530;2022-12-10T03:55:03;36.30;;;16.98;;
16478;SDS011;8350;52.316;10.530;2022-12-10T03:57:31;36.20;;;18.15;;
16478;SDS011;8350;52.316;10.530;2022-12-10T03:59:58;31.30;;;16.10;;
16478;SDS011;8350;52.316;10.530;2022-12-10T04:02:25;30.35;;;14.80;;
16478;SDS011;8350;52.316;10.530;2022-12-10T04:04:54;25.85;;;15.57;;
16478;SDS011;8350;52.316;10.530;2022-12-10T04:07:21;33.28;;;16.70;;
16478;SDS011;8350;52.316;10.530;2022-12-10T04:09:50;30.42;;;15.95;;
16478;SDS011;8350;52.316;10.530;2022-12-10T04:12:17;37.03;;;17.13;;
16478;SDS011;8350;52.316;10.530;2022-12-10T04:14:44;37.70;;;18.77;;
16478;SDS011;8350;52.316;10.530;2022-12-10T04:17:30;38.28;;;18.55;;
16478;SDS011;8350;52.316;10.530;2022-12-10T04:19:59;35.63;;;18.23;;
16478;SDS011;8350;52.316;10.530;2022-12-10T04:22:26;30.73;;;14.65;;
16478;SDS011;8350;52.316;10.530;2022-12-10T04:25:10;21.92;;;11.18;;
16478;SDS011;8350;52.316;10.530;2022-12-10T04:27:56;25.10;;;13.10;;
16478;SDS011;8350;52.316;10.530;2022-12-10T04:30:23;32.70;;;14.40;;
16478;SDS011;8350;52.316;10.530;2022-12-10T04:32:50;24.75;;;12.95;;
16478;SDS011;8350;52.316;10.530;2022-12-10T04:35:18;32.72;;;15.10;;
16478;SDS011;8350;52.316;10.530;2022-12-10T04:37:45;28.75;;;14.45;;
16478;SDS011;8350;52.316;10.530;2022-12-10T04:40:12;30.50;;;15.57;;
16478;SDS011;8350;52.316;10.530;2022-12-10T04:42:39;30.35;;;15.65;;
16478;SDS011;8350;52.316;10.530;2022-12-10T04:45:06;34.25;;;17.33;;
16478;SDS011;8350;52.316;10.530;2022-12-10T04:47:33;30.88;;;16.20;;
16478;SDS011;8350;52.316;10.530;2022-12-10T04:50:00;34.63;;;16.95;;
16478;SDS011;8350;52.316;10.530;2022-12-10T04:52:29;36.13;;;17.02;;
16478;SDS011;8350;52.316;10.530;2022-12-10T04:54:56;34.30;;;16.88;;
16478;SDS011;8350;52.316;10.530;2022-12-10T04:57:26;37.30;;;17.92;;
16478;SDS011;8350;52.316;10.530;2022-12-10T04:59:53;37.13;;;18.55;;
16478;SDS011;8350;52.316;10.530;2022-12-10T05:02:20;32.35;;;16.65;;
16478;SDS011;8350;52.316;10.530;2022-12-10T05:04:47;30.08;;;16.40;;
16478;SDS011;8350;52.316;10.530;2022-12-10T05:07:15;39.15;;;17.75;;
16478;SDS011;8350;52.316;10.530;2022-12-10T05:09:43;32.65;;;15.60;;
16478;SDS011;8350;52.316;10.530;2022-12-10T05:12:10;23.17;;;13.05;;
16478;SDS011;8350;52.316;10.530;2022-12-10T05:14:37;23.08;;;12.77;;
16478;SDS011;8350;52.316;10.530;2022-12-10T05:17:04;24.13;;;12.32;;
16478;SDS011;8350;52.316;10.530;2022-12-10T05:19:31;25.40;;;13.23;;
16478;SDS011;8350;52.316;10.530;2022-12-10T05:21:58;25.98;;;13.00;;
16478;SDS011;8350;52.316;10.530;2022-12-10T05:24:44;23.15;;;13.23;;
16478;SDS011;8350;52.316;10.530;2022-12-10T05:27:11;26.73;;;14.20;;
16478;SDS011;8350;52.316;10.530;2022-12-10T05:29:38;30.50;;;14.50;;
16478;SDS011;8350;52.316;10.530;2022-12-10T05:32:05;31.15;;;17.05;;
16478;SDS011;8350;52.316;10.530;2022-12-10T05:34:32;30.15;;;15.02;;
16478;SDS011;8350;52.316;10.530;2022-12-10T05:36:59;31.77;;;16.15;;
16478;SDS011;8350;52.316;10.530;2022-12-10T05:39:28;32.13;;;17.15;;
16478;SDS011;8350;52.316;10.530;2022-12-10T05:41:57;31.23;;;16.65;;
16478;SDS011;8350;52.316;10.530;2022-12-10T05:44:24;28.45;;;15.20;;
16478;SDS011;8350;52.316;10.530;2022-12-10T05:46:51;28.95;;;16.27;;
16478;SDS011;8350;52.316;10.530;2022-12-10T05:49:19;29.70;;;15.18;;
16478;SDS011;8350;52.316;10.530;2022-12-10T05:51:46;32.28;;;17.80;;
16478;SDS011;8350;52.316;10.530;2022-12-10T05:54:13;36.40;;;17.48;;
16478;SDS011;8350;52.316;10.530;2022-12-10T05:56:40;34.85;;;17.75;;
16478;SDS011;8350;52.316;10.530;2022-12-10T05:59:09;41.45;;;18.40;;
16478;SDS011;8350;52.316;10.530;2022-12-10T06:01:36;31.98;;;18.15;;
16478;SDS011;8350;52.316;10.530;2022-12-10T06:04:03;33.03;;;18.75;;
16478;SDS011;8350;52.316;10.530;2022-12-10T06:06:33;34.92;;;18.30;;
16478;SDS011;8350;52.316;10.530;2022-12-10T06:09:01;37.50;;;18.95;;
16478;SDS011;8350;52.316;10.530;2022-12-10T06:11:29;35.70;;;19.02;;
16478;SDS011;8350;52.316;10.530;2022-12-10T06:13:56;34.72;;;16.63;;
16478;SDS011;8350;52.316;10.530;2022-12-10T06:16:26;38.38;;;18.27;;
16478;SDS011;8350;52.316;10.530;2022-12-10T06:18:53;35.50;;;17.80;;
16478;SDS011;8350;52.316;10.530;2022-12-10T06:21:21;41.10;;;17.65;;
16478;SDS011;8350;52.316;10.530;2022-12-10T06:23:49;36.72;;;16.30;;
16478;SDS011;8350;52.316;10.530;2022-12-10T06:26:18;33.17;;;15.82;;
16478;SDS011;8350;52.316;10.530;2022-12-10T06:28:46;38.17;;;18.45;;
16478;SDS011;8350;52.316;10.530;2022-12-10T06:31:14;38.15;;;16.88;;
16478;SDS011;8350;52.316;10.530;2022-12-10T06:33:43;31.83;;;16.33;;
16478;SDS011;8350;52.316;10.530;2022-12-10T06:36:13;34.45;;;16.08;;
16478;SDS011;8350;52.316;10.530;2022-12-10T06:38:42;35.38;;;17.02;;
16478;SDS011;8350;52.316;10.530;2022-12-10T06:41:10;32.97;;;16.98;;
16478;SDS011;8350;52.316;10.530;2022-12-10T06:43:41;34.85;;;14.60;;
16478;SDS011;8350;52.316;10.530;2022-12-10T06:46:08;32.42;;;16.30;;
16478;SDS011;8350;52.316;10.530;2022-12-10T06:48:37;30.88;;;16.50;;
16478;SDS011;8350;52.316;10.530;2022-12-10T06:51:06;31.58;;;17.00;;
16478;SDS011;8350;52.316;10.530;2022-12-10T06:53:34;35.55;;;15.60;;
16478;SDS011;8350;52.316;10.530;2022-12-10T06:56:02;35.40;;;17.48;;
16478;SDS011;8350;52.316;10.530;2022-12-10T06:58:31;32.58;;;15.60;;
16478;SDS011;8350;52.316;10.530;2022-12-10T07:01:03;37.50;;;18.10;;
16478;SDS011;8350;52.316;10.530;2022-12-10T07:03:31;36.75;;;17.90;;
16478;SDS011;8350;52.316;10.530;2022-12-10T07:05:58;34.10;;;17.42;;
16478;SDS011;8350;52.316;10.530;2022-12-10T07:08:27;31.33;;;15.75;;
16478;SDS011;8350;52.316;10.530;2022-12-10T07:10:54;28.75;;;14.95;;
16478;SDS011;8350;52.316;10.530;2022-12-10T07:13:22;31.30;;;15.50;;
16478;SDS011;8350;52.316;10.530;2022-12-10T07:15:49;31.88;;;15.80;;
16478;SDS011;8350;52.316;10.530;2022-12-10T07:18:16;29.13;;;13.10;;
16478;SDS011;8350;52.316;10.530;2022-12-10T07:20:43;30.83;;;14.23;;
16478;SDS011;8350;52.316;10.530;2022-12-10T07:23:10;28.48;;;13.23;;
16478;SDS011;8350;52.316;10.530;2022-12-10T07:25:38;26.90;;;14.82;;
16478;SDS011;8350;52.316;10.530;2022-12-10T07:28:05;31.63;;;15.73;;
16478;SDS011;8350;52.316;10.530;2022-12-10T07:30:35;26.27;;;13.20;;
16478;SDS011;8350;52.316;10.530;2022-12-10T07:33:01;24.35;;;14.63;;
16478;SDS011;8350;52.316;10.530;2022-12-10T07:35:28;24.00;;;12.75;;
16478;SDS011;8350;52.316;10.530;2022-12-10T07:37:55;26.23;;;13.98;;
16478;SDS011;8350;52.316;10.530;2022-12-10T07:40:25;27.42;;;13.57;;
16478;SDS011;8350;52.316;10.530;2022-12-10T07:42:54;28.40;;;13.57;;
16478;SDS011;8350;52.316;10.530;2022-12-10T07:45:22;27.95;;;14.32;;
16478;SDS011;8350;52.316;10.530;2022-12-10T07:47:49;26.38;;;13.98;;
16478;SDS011;8350;52.316;10.530;2022-12-10T07:50:16;31.88;;;15.93;;
16478;SDS011;8350;52.316;10.530;2022-12-10T07:52:43;21.42;;;12.68;;
16478;SDS011;8350;52.316;10.530;2022-12-10T07:55:10;25.92;;;13.75;;
16478;SDS011;8350;52.316;10.530;2022-12-10T07:57:37;23.98;;;13.13;;
16478;SDS011;8350;52.316;10.530;2022-12-10T08:00:06;22.23;;;13.13;;
16478;SDS011;8350;52.316;10.530;2022-12-10T08:02:33;25.90;;;12.88;;
16478;SDS011;8350;52.316;10.530;2022-12-10T08:05:01;21.50;;;12.85;;
16478;SDS011;8350;52.316;10.530;2022-12-10T08:07:28;23.52;;;12.35;;
16478;SDS011;8350;52.316;10.530;2022-12-10T08:09:55;24.13;;;12.45;;
16478;SDS011;8350;52.316;10.530;2022-12-10T08:12:22;24.42;;;15.30;;
16478;SDS011;8350;52.316;10.530;2022-12-10T08:14:49;33.33;;;17.65;;
16478;SDS011;8350;52.316;10.530;2022-12-10T08:17:18;23.45;;;13.82;;
16478;SDS011;8350;52.316;10.530;2022-12-10T08:19:45;24.20;;;13.00;;
16478;SDS011;8350;52.316;10.530;2022-12-10T08:22:12;25.63;;;13.98;;
16478;SDS011;8350;52.316;10.530;2022-12-10T08:24:39;26.70;;;14.95;;
16478;SDS011;8350;52.316;10.530;2022-12-10T08:27:06;31.80;;;15.07;;
16478;SDS011;8350;52.316;10.530;2022-12-10T08:29:33;28.05;;;14.27;;
16478;SDS011;8350;52.316;10.530;2022-12-10T08:32:00;28.52;;;14.23;;
16478;SDS011;8350;52.316;10.530;2022-12-10T08:34:28;26.98;;;15.13;;
16478;SDS011;8350;52.316;10.530;2022-12-10T08:36:56;26.67;;;14.73;;
16478;SDS011;8350;52.316;10.530;2022-12-10T08:39:23;31.17;;;14.68;;
16478;SDS011;8350;52.316;10.530;2022-12-10T08:41:49;30.63;;;17.23;;
16478;SDS011;8350;52.316;10.530;2022-12-10T08:44:18;32.40;;;15.70;;
16478;SDS011;8350;52.316;10.530;2022-12-10T08:46:47;28.13;;;14.23;;
16478;SDS011;8350;52.316;10.530;2022-12-10T08:49:26;27.40;;;14.88;;
16478;SDS011;8350;52.316;10.530;2022-12-10T08:51:54;26.52;;;14.05;;
16478;SDS011;8350;52.316;10.530;2022-12-10T08:54:21;29.38;;;15.35;;
16478;SDS011;8350;52.316;10.530;2022-12-10T08:56:48;26.50;;;14.77;;
16478;SDS011;8350;52.316;10.530;2022-12-10T08:59:16;27.02;;;14.80;;
16478;SDS011;8350;52.316;10.530;2022-12-10T09:01:46;28.83;;;13.77;;
16478;SDS011;8350;52.316;10.530;2022-12-10T09:04:13;29.33;;;14.43;;
16478;SDS011;8350;52.316;10.530;2022-12-10T09:06:40;30.90;;;15.63;;
16478;SDS011;8350;52.316;10.530;2022-12-10T09:09:14;28.77;;;15.50;;
16478;SDS011;8350;52.316;10.530;2022-12-10T09:11:41;26.65;;;15.02;;
16478;SDS011;8350;52.316;10.530;2022-12-10T09:14:09;26.45;;;14.05;;
16478;SDS011;8350;52.316;10.530;2022-12-10T09:16:46;26.88;;;14.85;;
16478;SDS011;8350;52.316;10.530;2022-12-10T09:19:13;27.75;;;14.43;;
16478;SDS011;8350;52.316;10.530;2022-12-10T09:21:42;28.92;;;14.68;;
16478;SDS011;8350;52.316;10.530;2022-12-10T09:24:09;28.25;;;14.15;;
16478;SDS011;8350;52.316;10.530;2022-12-10T09:26:40;29.65;;;14.82;;
16478;SDS011;8350;52.316;10.530;2022-12-10T09:29:07;28.73;;;16.17;;
16478;SDS011;8350;52.316;10.530;2022-12-10T09:31:34;31.27;;;17.23;;
16478;SDS011;8350;52.316;10.530;2022-12-10T09:34:04;34.78;;;17.13;;
16478;SDS011;8350;52.316;10.530;2022-12-10T09:36:31;28.23;;;15.45;;
16478;SDS011;8350;52.316;10.530;2022-12-10T09:38:58;31.15;;;16.15;;
16478;SDS011;8350;52.316;10.530;2022-12-10T09:44:30;32.85;;;17.27;;
16478;SDS011;8350;52.316;10.530;2022-12-10T09:47:05;31.25;;;15.00;;
16478;SDS011;8350;52.316;10.530;2022-12-10T09:49:39;33.13;;;16.27;;
16478;SDS011;8350;52.316;10.530;2022-12-10T09:52:25;30.65;;;15.35;;
16478;SDS011;8350;52.316;10.530;2022-12-10T09:54:56;28.83;;;15.45;;
16478;SDS011;8350;52.316;10.530;2022-12-10T09:57:26;27.67;;;13.95;;
16478;SDS011;8350;52.316;10.530;2022-12-10T09:59:57;32.88;;;15.35;;
16478;SDS011;8350;52.316;10.530;2022-12-10T10:02:28;34.10;;;17.38;;
16478;SDS011;8350;52.316;10.530;2022-12-10T10:04:58;31.73;;;16.13;;
16478;SDS011;8350;52.316;10.530;2022-12-10T10:07:33;29.63;;;15.25;;
16478;SDS011;8350;52.316;10.530;2022-12-10T10:10:20;28.00;;;14.50;;
16478;SDS011;8350;52.316;10.530;2022-12-10T10:12:51;27.92;;;15.07;;
16478;SDS011;8350;52.316;10.530;2022-12-10T10:15:24;26.25;;;14.98;;
16478;SDS011;8350;52.316;10.530;2022-12-10T10:17:53;26.20;;;13.57;;
16478;SDS011;8350;52.316;10.530;2022-12-10T10:20:24;32.10;;;15.38;;
16478;SDS011;8350;52.316;10.530;2022-12-10T10:22:51;30.67;;;15.05;;
16478;SDS011;8350;52.316;10.530;2022-12-10T10:25:22;30.70;;;14.23;;
16478;SDS011;8350;52.316;10.530;2022-12-10T10:27:49;32.78;;;15.95;;
16478;SDS011;8350;52.316;10.530;2022-12-10T10:30:17;38.05;;;18.92;;
16478;SDS011;8350;52.316;10.530;2022-12-10T10:32:53;29.23;;;14.68;;
16478;SDS011;8350;52.316;10.530;2022-12-10T10:35:23;26.70;;;13.23;;
16478;SDS011;8350;52.316;10.530;2022-12-10T10:37:55;25.58;;;13.23;;
16478;SDS011;8350;52.316;10.530;2022-12-10T10:40:25;29.02;;;13.70;;
16478;SDS011;8350;52.316;10.530;2022-12-10T10:42:55;28.65;;;14.23;;
16478;SDS011;8350;52.316;10.530;2022-12-10T10:45:31;27.60;;;14.13;;
16478;SDS011;8350;52.316;10.530;2022-12-10T10:48:09;30.13;;;15.18;;
16478;SDS011;8350;52.316;10.530;2022-12-10T10:50:40;26.27;;;14.07;;
16478;SDS011;8350;52.316;10.530;2022-12-10T10:53:21;25.60;;;13.55;;
16478;SDS011;8350;52.316;10.530;2022-12-10T10:55:54;32.40;;;15.18;;
16478;SDS011;8350;52.316;10.530;2022-12-10T10:58:24;27.73;;;14.45;;
16478;SDS011;8350;52.316;10.530;2022-12-10T11:00:53;30.75;;;14.02;;
16478;SDS011;8350;52.316;10.530;2022-12-10T11:03:26;28.08;;;14.95;;
16478;SDS011;8350;52.316;10.530;2022-12-10T11:05:55;33.15;;;16.52;;
16478;SDS011;8350;52.316;10.530;2022-12-10T11:08:24;33.47;;;16.75;;
16478;SDS011;8350;52.316;10.530;2022-12-10T11:10:56;29.40;;;16.73;;
16478;SDS011;8350;52.316;10.530;2022-12-10T11:13:27;32.40;;;15.10;;
16478;SDS011;8350;52.316;10.530;2022-12-10T11:16:17;29.73;;;15.25;;
16478;SDS011;8350;52.316;10.530;2022-12-10T11:18:53;33.42;;;17.13;;
16478;SDS011;8350;52.316;10.530;2022-12-10T11:21:27;34.20;;;15.68;;
16478;SDS011;8350;52.316;10.530;2022-12-10T11:23:55;29.98;;;16.42;;
16478;SDS011;8350;52.316;10.530;2022-12-10T11:26:32;34.33;;;16.35;;
16478;SDS011;8350;52.316;10.530;2022-12-10T11:29:14;34.00;;;14.35;;
16478;SDS011;8350;52.316;10.530;2022-12-10T11:31:52;34.22;;;14.93;;
16478;SDS011;8350;52.316;10.530;2022-12-10T11:34:33;37.00;;;15.60;;
16478;SDS011;8350;52.316;10.530;2022-12-10T11:37:09;31.25;;;14.25;;
16478;SDS011;8350;52.316;10.530;2022-12-10T11:39:49;26.17;;;13.30;;
16478;SDS011;8350;52.316;10.530;2022-12-10T11:42:33;31.92;;;14.43;;
16478;SDS011;8350;52.316;10.530;2022-12-10T11:45:07;25.75;;;12.98;;
16478;SDS011;8350;52.316;10.530;2022-12-10T11:47:47;27.60;;;14.35;;
16478;SDS011;8350;52.316;10.530;2022-12-10T11:50:28;29.45;;;14.93;;
16478;SDS011;8350;52.316;10.530;2022-12-10T11:53:11;23.42;;;13.70;;
16478;SDS011;8350;52.316;10.530;2022-12-10T11:55:47;24.67;;;13.73;;
16478;SDS011;8350;52.316;10.530;2022-12-10T11:58:26;30.52;;;14.32;;
16478;SDS011;8350;52.316;10.530;2022-12-10T12:01:06;22.08;;;12.50;;
16478;SDS011;8350;52.316;10.530;2022-12-10T12:03:54;23.98;;;13.15;;
16478;SDS011;8350;52.316;10.530;2022-12-10T12:06:43;26.35;;;14.15;;
16478;SDS011;8350;52.316;10.530;2022-12-10T12:13:10;24.65;;;13.18;;
16478;SDS011;8350;52.316;10.530;2022-12-10T12:15:42;21.73;;;12.18;;
16478;SDS011;8350;52.316;10.530;2022-12-10T12:18:14;24.50;;;13.15;;
16478;SDS011;8350;52.316;10.530;2022-12-10T12:20:47;21.40;;;11.75;;
16478;SDS011;8350;52.316;10.530;2022-12-10T12:23:22;22.95;;;15.32;;
16478;SDS011;8350;52.316;10.530;2022-12-10T12:25:55;21.08;;;12.65;;
16478;SDS011;8350;52.316;10.530;2022-12-10T12:28:25;24.92;;;13.48;;
16478;SDS011;8350;52.316;10.530;2022-12-10T12:30:58;22.77;;;11.55;;
16478;SDS011;8350;52.316;10.530;2022-12-10T12:33:29;22.33;;;11.88;;
16478;SDS011;8350;52.316;10.530;2022-12-10T12:36:06;27.25;;;14.32;;
16478;SDS011;8350;52.316;10.530;2022-12-10T12:38:42;21.83;;;12.88;;
16478;SDS011;8350;52.316;10.530;2022-12-10T12:41:21;19.58;;;11.10;;
16478;SDS011;8350;52.316;10.530;2022-12-10T12:43:58;19.30;;;11.40;;
16478;SDS011;8350;52.316;10.530;2022-12-10T12:46:32;25.90;;;15.35;;
16478;SDS011;8350;52.316;10.530;2022-12-10T12:49:05;26.40;;;15.30;;
16478;SDS011;8350;52.316;10.530;2022-12-10T12:51:45;17.77;;;10.95;;
16478;SDS011;8350;52.316;10.530;2022-12-10T12:54:20;17.95;;;10.75;;
16478;SDS011;8350;52.316;10.530;2022-12-10T12:56:55;18.05;;;10.38;;
16478;SDS011;8350;52.316;10.530;2022-12-10T12:59:34;17.33;;;10.52;;
16478;SDS011;8350;52.316;10.530;2022-12-10T13:02:19;18.35;;;10.15;;
16478;SDS011;8350;52.316;10.530;2022-12-10T13:05:12;16.88;;;9.13;;
16478;SDS011;8350;52.316;10.530;2022-12-10T13:14:16;15.68;;;9.38;;
16478;SDS011;8350;52.316;10.530;2022-12-10T13:22:57;17.52;;;9.13;;
16478;SDS011;8350;52.316;10.530;2022-12-10T13:28:30;16.60;;;9.38;;
16478;SDS011;8350;52.316;10.530;2022-12-10T13:31:07;16.50;;;10.40;;
16478;SDS011;8350;52.316;10.530;2022-12-10T13:33:47;16.17;;;8.95;;
16478;SDS011;8350;52.316;10.530;2022-12-10T13:36:23;17.77;;;10.30;;
16478;SDS011;8350;52.316;10.530;2022-12-10T13:38:57;19.23;;;11.15;;
16478;SDS011;8350;52.316;10.530;2022-12-10T13:41:39;16.48;;;10.15;;
16478;SDS011;8350;52.316;10.530;2022-12-10T13:44:35;13.80;;;9.40;;
16478;SDS011;8350;52.316;10.530;2022-12-10T13:49:59;16.10;;;9.70;;
16478;SDS011;8350;52.316;10.530;2022-12-10T13:52:29;15.82;;;9.90;;
16478;SDS011;8350;52.316;10.530;2022-12-10T13:55:05;19.85;;;11.90;;
16478;SDS011;8350;52.316;10.530;2022-12-10T14:00:39;18.67;;;12.10;;
16478;SDS011;8350;52.316;10.530;2022-12-10T14:03:29;21.95;;;13.75;;
16478;SDS011;8350;52.316;10.530;2022-12-10T14:06:20;18.58;;;11.43;;
16478;SDS011;8350;52.316;10.530;2022-12-10T14:08:56;17.67;;;11.63;;
16478;SDS011;8350;52.316;10.530;2022-12-10T14:11:28;25.35;;;13.63;;
16478;SDS011;8350;52.316;10.530;2022-12-10T14:13:57;22.75;;;13.68;;
16478;SDS011;8350;52.316;10.530;2022-12-10T14:16:28;18.20;;;11.43;;
16478;SDS011;8350;52.316;10.530;2022-12-10T14:19:02;17.02;;;11.18;;
16478;SDS011;8350;52.316;10.530;2022-12-10T14:21:32;17.05;;;11.55;;
16478;SDS011;8350;52.316;10.530;2022-12-10T14:24:00;18.63;;;11.80;;
16478;SDS011;8350;52.316;10.530;2022-12-10T14:26:29;20.60;;;11.55;;
16478;SDS011;8350;52.316;10.530;2022-12-10T14:28:59;17.48;;;11.00;;
16478;SDS011;8350;52.316;10.530;2022-12-10T14:31:29;21.60;;;11.85;;
16478;SDS011;8350;52.316;10.530;2022-12-10T14:33:59;18.73;;;12.05;;
16478;SDS011;8350;52.316;10.530;2022-12-10T14:36:30;20.30;;;12.00;;
16478;SDS011;8350;52.316;10.530;2022-12-10T14:39:00;19.52;;;11.57;;
16478;SDS011;8350;52.316;10.530;2022-12-10T14:41:28;20.88;;;10.77;;
16478;SDS011;8350;52.316;10.530;2022-12-10T14:44:01;19.20;;;11.75;;
16478;SDS011;8350;52.316;10.530;2022-12-10T14:46:31;18.77;;;11.25;;
16478;SDS011;8350;52.316;10.530;2022-12-10T14:48:59;14.57;;;9.75;;
16478;SDS011;8350;52.316;10.530;2022-12-10T14:51:30;18.40;;;10.20;;
16478;SDS011;8350;52.316;10.530;2022-12-10T14:54:00;16.67;;;10.18;;
16478;SDS011;8350;52.316;10.530;2022-12-10T14:56:27;17.63;;;9.75;;
16478;SDS011;8350;52.316;10.530;2022-12-10T14:59:02;16.67;;;10.30;;
16478;SDS011;8350;52.316;10.530;2022-12-10T15:01:37;19.95;;;12.13;;
16478;SDS011;8350;52.316;10.530;2022-12-10T15:04:11;20.42;;;12.60;;
16478;SDS011;8350;52.316;10.530;2022-12-10T15:06:40;22.33;;;12.13;;
16478;SDS011;8350;52.316;10.530;2022-12-10T15:09:12;15.65;;;10.70;;
16478;SDS011;8350;52.316;10.530;2022-12-10T15:11:41;19.92;;;10.43;;